createdAt,value
2018-06-20T00:00:17.635Z,1.4
2018-06-20T00:02:18.437Z,1.3
2018-06-20T00:04:18.216Z,1.2
2018-06-20T00:06:17.824Z,1.7
2018-06-20T00:08:17.627Z,1
2018-06-20T00:10:17.958Z,1
2018-06-20T00:12:17.756Z,1.4
2018-06-20T00:14:17.556Z,1.3
2018-06-20T00:16:17.623Z,1.2
2018-06-20T00:18:18.494Z,1.1
2018-06-20T00:20:18.297Z,1.3
2018-06-20T00:22:18.105Z,2
2018-06-20T00:24:17.886Z,1.2
2018-06-20T00:26:18.437Z,1.3
2018-06-20T00:28:18.230Z,1.2
2018-06-20T00:30:18.028Z,1.5
2018-06-20T00:32:17.815Z,1.5
2018-06-20T00:34:17.606Z,1.4
2018-06-20T00:36:17.753Z,1.5
2018-06-20T00:38:17.560Z,1.6
2018-06-20T00:40:17.847Z,1
2018-06-20T00:42:17.660Z,1.5
2018-06-20T00:44:18.489Z,1.4
2018-06-20T00:46:18.045Z,1.6
2018-06-20T00:48:17.836Z,1.6
2018-06-20T00:50:17.691Z,1.5
2018-06-20T00:52:18.503Z,1.3
2018-06-20T00:54:18.314Z,1.1
2018-06-20T00:56:18.392Z,1.7
2018-06-20T00:58:18.157Z,1.3
2018-06-20T01:00:17.968Z,1.1
2018-06-20T01:02:17.770Z,1.4
2018-06-20T01:04:17.571Z,1
2018-06-20T01:06:17.801Z,1.2
2018-06-20T01:08:17.575Z,1.1
2018-06-20T01:10:17.816Z,1.9
2018-06-20T01:12:17.622Z,1
2018-06-20T01:14:18.412Z,1.1
2018-06-20T01:16:18.113Z,1.5
2018-06-20T01:18:17.997Z,1.5
2018-06-20T01:20:17.815Z,1.4
2018-06-20T01:22:17.584Z,1.2
2018-06-20T01:24:18.356Z,1.5
2018-06-20T01:26:17.946Z,1.4
2018-06-20T01:28:17.758Z,1.6
2018-06-20T01:30:17.558Z,1.6
2018-06-20T01:32:18.366Z,1.6
2018-06-20T01:34:18.155Z,2.2
2018-06-20T01:36:17.760Z,0.8
2018-06-20T01:38:17.563Z,1.4
2018-06-20T01:40:17.933Z,1.5
2018-06-20T01:42:17.700Z,1.6
2018-06-20T01:44:18.515Z,1.4
2018-06-20T01:46:19.142Z,1.8
2018-06-20T01:48:17.905Z,2.1
2018-06-20T01:50:17.699Z,1.6
2018-06-20T01:52:19.520Z,2
2018-06-20T01:54:18.345Z,1.9
2018-06-20T01:56:19.417Z,1.7
2018-06-20T01:58:18.244Z,1.5
2018-06-20T02:00:18.042Z,1.6
2018-06-20T02:02:18.809Z,1.3
2018-06-20T02:04:17.591Z,2.5
2018-06-20T02:06:18.181Z,2
2018-06-20T02:08:17.971Z,1.8
2018-06-20T02:10:19.217Z,2
2018-06-20T02:12:18.016Z,1.9
2018-06-20T02:14:17.806Z,1.7
2018-06-20T02:16:18.518Z,1.5
2018-06-20T02:18:18.403Z,1.9
2018-06-20T02:20:19.202Z,1.5
2018-06-20T02:22:18.021Z,1.8
2018-06-20T02:24:18.839Z,1.9
2018-06-20T02:26:18.900Z,1.9
2018-06-20T02:28:18.688Z,1.7
2018-06-20T02:30:18.548Z,1.5
2018-06-20T02:32:18.359Z,1.8
2018-06-20T02:34:18.146Z,1.4
2018-06-20T02:36:18.256Z,1.9
2018-06-20T02:38:18.039Z,1.9
2018-06-20T02:40:19.333Z,1.4
2018-06-20T02:42:18.150Z,1.4
2018-06-20T02:44:17.935Z,2.3
2018-06-20T02:46:18.006Z,1.2
2018-06-20T02:48:17.796Z,1.3
2018-06-20T02:50:17.631Z,1.9
2018-06-20T02:52:18.447Z,1.4
2018-06-20T02:54:18.255Z,1.5
2018-06-20T02:56:19.371Z,2
2018-06-20T02:58:18.161Z,1.6
2018-06-20T03:00:18.001Z,2.2
2018-06-20T03:02:17.831Z,1.8
2018-06-20T03:04:17.630Z,1.5
2018-06-20T03:06:18.204Z,1.7
2018-06-20T03:08:18.015Z,1.8
2018-06-20T03:10:18.325Z,1.6
2018-06-20T03:12:18.151Z,1.6
2018-06-20T03:14:18.970Z,2
2018-06-20T03:16:18.050Z,1.6
2018-06-20T03:18:17.918Z,2.1
2018-06-20T03:20:17.732Z,1.9
2018-06-20T03:22:17.563Z,1.8
2018-06-20T03:24:18.379Z,2.2
2018-06-20T03:26:17.913Z,1.8
2018-06-20T03:28:17.740Z,1.7
2018-06-20T03:30:17.590Z,1.9
2018-06-20T03:32:18.384Z,1.6
2018-06-20T03:34:18.171Z,2.1
2018-06-20T03:36:17.814Z,2.7
2018-06-20T03:38:17.605Z,2.2
2018-06-20T03:40:17.901Z,2.3
2018-06-20T03:42:17.666Z,2
2018-06-20T03:44:18.450Z,1.9
2018-06-20T03:46:18.067Z,2.8
2018-06-20T03:48:17.881Z,2.3
2018-06-20T03:50:17.686Z,2.5
2018-06-20T03:52:18.513Z,2.5
2018-06-20T03:54:18.283Z,2.6
2018-06-20T03:56:18.464Z,2.3
2018-06-20T03:58:18.271Z,2.1
2018-06-20T04:00:18.067Z,2.4
2018-06-20T04:02:17.904Z,2.5
2018-06-20T04:04:17.905Z,2.4
2018-06-20T04:06:18.537Z,2.4
2018-06-20T04:08:18.366Z,2.6
2018-06-20T04:10:17.654Z,2.1
2018-06-20T04:12:18.461Z,2.2
2018-06-20T04:14:18.254Z,1.9
2018-06-20T04:16:18.362Z,1.9
2018-06-20T04:18:18.255Z,2.5
2018-06-20T04:20:18.200Z,2.7
2018-06-20T04:22:18.995Z,2.3
2018-06-20T04:24:17.775Z,2.4
2018-06-20T04:26:18.355Z,2
2018-06-20T04:28:18.159Z,2.6
2018-06-20T04:30:18.080Z,2.8
2018-06-20T04:32:17.869Z,2.6
2018-06-20T04:34:17.668Z,2.7
2018-06-20T04:36:17.872Z,2.8
2018-06-20T04:38:17.677Z,2.8
2018-06-20T04:40:17.966Z,2.5
2018-06-20T04:42:17.776Z,2.5
2018-06-20T04:44:17.580Z,2.4
2018-06-20T04:46:17.685Z,2.7
2018-06-20T04:48:18.513Z,2.1
2018-06-20T04:50:18.383Z,3
2018-06-20T04:52:18.189Z,2.3
2018-06-20T04:54:18.010Z,2.5
2018-06-20T04:56:17.590Z,2.2
2018-06-20T04:58:18.411Z,2.6
2018-06-20T05:00:18.232Z,2.5
2018-06-20T05:02:18.044Z,2.8
2018-06-20T05:04:17.953Z,3
2018-06-20T05:06:18.181Z,2.7
2018-06-20T05:08:17.972Z,2.8
2018-06-20T05:10:18.210Z,3.4
2018-06-20T05:12:17.994Z,3
2018-06-20T05:14:17.830Z,2.5
2018-06-20T05:16:18.460Z,2.4
2018-06-20T05:18:18.316Z,2.4
2018-06-20T05:20:18.142Z,3.3
2018-06-20T05:22:17.955Z,2.9
2018-06-20T05:24:17.763Z,3
2018-06-20T05:26:18.126Z,3.2
2018-06-20T05:28:17.919Z,2.8
2018-06-20T05:30:17.721Z,3.8
2018-06-20T05:32:17.554Z,3
2018-06-20T05:34:18.352Z,3.6
2018-06-20T05:36:18.523Z,3.3
2018-06-20T05:38:18.320Z,2.5
2018-06-20T05:40:17.625Z,3.5
2018-06-20T05:42:18.406Z,4
2018-06-20T05:44:18.239Z,3.2
2018-06-20T05:46:17.865Z,3.2
2018-06-20T05:48:17.660Z,2.2
2018-06-20T05:50:18.501Z,2.6
2018-06-20T05:52:18.298Z,2.2
2018-06-20T05:54:18.104Z,2.3
2018-06-20T05:56:18.281Z,2.7
2018-06-20T05:58:18.088Z,3
2018-06-20T06:00:17.920Z,2.2
2018-06-20T06:02:17.712Z,3
2018-06-20T06:04:18.531Z,2.6
2018-06-20T06:06:18.190Z,2.5
2018-06-20T06:08:17.992Z,2.7
2018-06-20T06:10:18.309Z,2.9
2018-06-20T06:12:18.130Z,2.5
2018-06-20T06:14:17.948Z,2.7
2018-06-20T06:16:17.611Z,2.6
2018-06-20T06:18:18.501Z,3
2018-06-20T06:20:18.363Z,2.2
2018-06-20T06:22:18.152Z,3.7
2018-06-20T06:24:17.950Z,2.7
2018-06-20T06:26:18.239Z,3.3
2018-06-20T06:28:18.031Z,2.6
2018-06-20T06:30:17.865Z,2.8
2018-06-20T06:32:17.680Z,3.5
2018-06-20T06:34:18.495Z,2.5
2018-06-20T06:36:18.054Z,2.8
2018-06-20T06:38:17.843Z,4.1
2018-06-20T06:40:18.166Z,2.9
2018-06-20T06:42:17.760Z,2.9
2018-06-20T06:44:17.570Z,3.1
2018-06-20T06:46:18.284Z,2.6
2018-06-20T06:48:18.081Z,2
2018-06-20T06:50:17.894Z,2.6
2018-06-20T06:52:17.720Z,2.1
2018-06-20T06:54:18.513Z,1.5
2018-06-20T06:56:18.276Z,2.1
2018-06-20T06:58:18.052Z,2.1
2018-06-20T07:00:17.841Z,2
2018-06-20T07:02:17.659Z,1.6
2018-06-20T07:04:18.479Z,1.6
2018-06-20T07:06:17.621Z,1.4
2018-06-20T07:08:18.456Z,1.4
2018-06-20T07:10:17.791Z,1.4
2018-06-20T07:12:17.589Z,1.4
2018-06-20T07:14:18.404Z,1.8
2018-06-20T07:16:17.963Z,1.5
2018-06-20T07:18:17.819Z,1.9
2018-06-20T07:20:17.633Z,1.2
2018-06-20T07:22:18.438Z,1.2
2018-06-20T07:24:18.279Z,1.5
2018-06-20T07:26:18.091Z,1.8
2018-06-20T07:28:17.906Z,1.6
2018-06-20T07:30:17.724Z,1.6
2018-06-20T07:32:17.547Z,1.9
2018-06-20T07:34:18.360Z,1.7
2018-06-20T07:36:18.667Z,1.3
2018-06-20T07:38:17.684Z,1.5
2018-06-20T07:40:17.968Z,1.6
2018-06-20T07:42:17.788Z,2.4
2018-06-20T07:44:17.573Z,1.7
2018-06-20T07:46:17.969Z,2.5
2018-06-20T07:48:17.765Z,2.9
2018-06-20T07:50:17.581Z,2.1
2018-06-20T07:52:18.374Z,1.7
2018-06-20T07:54:18.169Z,1.7
2018-06-20T07:56:17.914Z,2.2
2018-06-20T07:58:17.719Z,2
2018-06-20T08:00:18.533Z,2.1
2018-06-20T08:02:18.342Z,1.7
2018-06-20T08:04:18.173Z,2.4
2018-06-20T08:06:17.800Z,2.5
2018-06-20T08:08:17.731Z,2.8
2018-06-20T08:10:18.010Z,2.2
2018-06-20T08:12:17.873Z,2.4
2018-06-20T08:14:17.713Z,2.5
2018-06-20T08:16:17.825Z,2.3
2018-06-20T08:18:17.719Z,2.3
2018-06-20T08:20:18.558Z,2.5
2018-06-20T08:22:18.391Z,2.8
2018-06-20T08:24:18.216Z,3
2018-06-20T08:26:18.348Z,2.7
2018-06-20T08:28:18.143Z,3.6
2018-06-20T08:30:18.044Z,2.6
2018-06-20T08:32:17.853Z,3.1
2018-06-20T08:34:17.688Z,2.9
2018-06-20T08:36:17.864Z,3
2018-06-20T08:38:17.688Z,2.9
2018-06-20T08:40:17.993Z,2.4
2018-06-20T08:42:17.796Z,3.2
2018-06-20T08:44:17.605Z,3.6
2018-06-20T08:46:18.247Z,3.3
2018-06-20T08:48:18.052Z,4
2018-06-20T08:50:17.878Z,3
2018-06-20T08:52:17.721Z,3.4
2018-06-20T08:54:18.556Z,4.1
2018-06-20T08:56:17.715Z,3
2018-06-20T08:58:18.537Z,3.2
2018-06-20T09:00:18.397Z,3.3
2018-06-20T09:02:18.240Z,3
2018-06-20T09:04:18.039Z,3.6
2018-06-20T09:06:18.112Z,5
2018-06-20T09:08:17.906Z,4.5
2018-06-20T09:10:18.181Z,4.4
2018-06-20T09:12:18.014Z,4.3
2018-06-20T09:14:17.886Z,5
2018-06-20T09:16:18.162Z,5.2
2018-06-20T09:18:18.075Z,4.3
2018-06-20T09:20:17.884Z,5
2018-06-20T09:22:17.768Z,5.5
2018-06-20T09:24:17.599Z,4.4
2018-06-20T09:26:17.772Z,5
2018-06-20T09:28:17.589Z,4.7
2018-06-20T09:30:18.438Z,3.9
2018-06-20T09:32:18.265Z,3.8
2018-06-20T09:34:18.082Z,4.5
2018-06-20T09:36:18.250Z,4.4
2018-06-20T09:38:18.075Z,4.8
2018-06-20T09:40:18.358Z,4.5
2018-06-20T09:42:17.980Z,3.4
2018-06-20T09:44:17.782Z,5
2018-06-20T09:46:17.995Z,4.8
2018-06-20T09:48:17.839Z,5.7
2018-06-20T09:50:17.669Z,4.7
2018-06-20T09:52:18.481Z,4.3
2018-06-20T09:54:18.277Z,3.6
2018-06-20T09:56:18.527Z,3.9
2018-06-20T09:58:18.339Z,4.3
2018-06-20T10:00:18.163Z,4.1
2018-06-20T10:02:17.962Z,5.3
2018-06-20T10:04:17.770Z,4.2
2018-06-20T10:06:18.431Z,4.5
2018-06-20T10:08:18.272Z,3.6
2018-06-20T10:10:17.618Z,3.9
2018-06-20T10:12:18.440Z,4.7
2018-06-20T10:14:18.279Z,4.7
2018-06-20T10:16:17.872Z,4.6
2018-06-20T10:18:17.786Z,5.3
2018-06-20T10:20:17.667Z,4.3
2018-06-20T10:22:17.558Z,4.1
2018-06-20T10:24:18.379Z,4.5
2018-06-20T10:26:17.988Z,4.6
2018-06-20T10:28:17.812Z,4
2018-06-20T10:30:17.644Z,4.9
2018-06-20T10:32:18.469Z,4.2
2018-06-20T10:34:18.341Z,4.5
2018-06-20T10:36:18.062Z,4.9
2018-06-20T10:38:17.856Z,4.9
2018-06-20T10:40:18.191Z,5.8
2018-06-20T10:42:17.997Z,5.2
2018-06-20T10:44:17.828Z,5.1
2018-06-20T10:46:18.589Z,4.5
2018-06-20T10:48:17.705Z,5.6
2018-06-20T10:50:18.567Z,5
2018-06-20T10:52:18.416Z,4.3
2018-06-20T10:54:18.295Z,4
2018-06-20T10:56:17.612Z,4.9
2018-06-20T10:58:18.492Z,5.1
2018-06-20T11:00:18.376Z,5.3
2018-06-20T11:02:18.177Z,5.1
2018-06-20T11:04:17.987Z,4.8
2018-06-20T11:06:18.174Z,6
2018-06-20T11:08:17.991Z,5.5
2018-06-20T11:10:18.296Z,4.4
2018-06-20T11:12:18.100Z,4.7
2018-06-20T11:14:17.906Z,5.3
2018-06-20T11:16:18.528Z,4.8
2018-06-20T11:18:18.466Z,4.3
2018-06-20T11:20:18.404Z,4.6
2018-06-20T11:22:18.237Z,4.4
2018-06-20T11:24:18.047Z,4.8
2018-06-20T11:26:18.161Z,5.2
2018-06-20T11:28:17.973Z,4.7
2018-06-20T11:30:17.821Z,5.4
2018-06-20T11:32:17.902Z,4.8
2018-06-20T11:34:17.725Z,5.5
2018-06-20T11:36:18.385Z,4.4
2018-06-20T11:38:18.195Z,3.7
2018-06-20T11:40:18.530Z,4.7
2018-06-20T11:42:18.381Z,4.5
2018-06-20T11:44:18.252Z,3.9
2018-06-20T11:46:18.173Z,4.5
2018-06-20T11:48:18.058Z,4.6
2018-06-20T11:50:17.911Z,4
2018-06-20T11:52:17.734Z,4.5
2018-06-20T11:54:17.570Z,4.6
2018-06-20T11:56:18.176Z,4.8
2018-06-20T11:58:18.010Z,4.3
2018-06-20T12:00:17.959Z,4.8
2018-06-20T12:02:17.764Z,4.4
2018-06-20T12:04:17.583Z,3.9
2018-06-20T12:06:17.746Z,4.6
2018-06-20T12:08:17.576Z,4.2
2018-06-20T12:10:17.898Z,3.6
2018-06-20T12:12:17.722Z,3.7
2018-06-20T12:14:17.585Z,4.1
2018-06-20T12:16:17.781Z,3.7
2018-06-20T12:18:17.698Z,4.2
2018-06-20T12:20:18.549Z,3.6
2018-06-20T12:22:18.380Z,4
2018-06-20T12:24:18.216Z,3.1
2018-06-20T12:26:17.805Z,3.9
2018-06-20T12:28:17.680Z,4.8
2018-06-20T12:30:18.529Z,3.7
2018-06-20T12:32:18.362Z,3.4
2018-06-20T12:34:18.163Z,4.5
2018-06-20T12:36:18.318Z,3.1
2018-06-20T12:38:18.126Z,3.7
2018-06-20T12:40:18.468Z,4.1
2018-06-20T12:42:18.285Z,4.1
2018-06-20T12:44:18.106Z,4.5
2018-06-20T12:46:17.718Z,3.2
2018-06-20T12:48:18.549Z,2.8
2018-06-20T12:50:18.385Z,3.6
2018-06-20T12:52:18.209Z,3.5
2018-06-20T12:54:18.038Z,2.6
2018-06-20T12:56:17.724Z,3.6
2018-06-20T12:58:17.614Z,3
2018-06-20T13:00:18.514Z,2.4
2018-06-20T13:02:18.349Z,3.4
2018-06-20T13:04:18.169Z,3
2018-06-20T13:06:17.747Z,2.5
2018-06-20T13:08:17.577Z,3.5
2018-06-20T13:10:17.907Z,3.6
2018-06-20T13:12:17.716Z,2.9
2018-06-20T13:14:18.543Z,3.5
2018-06-20T13:16:18.140Z,3.1
2018-06-20T13:18:18.042Z,3.9
2018-06-20T13:20:17.958Z,3
2018-06-20T13:22:17.921Z,2.7
2018-06-20T13:24:17.724Z,2.3
2018-06-20T13:26:18.359Z,2.5
2018-06-20T13:28:18.191Z,2.4
2018-06-20T13:30:17.995Z,3
2018-06-20T13:32:17.824Z,3.2
2018-06-20T13:34:17.636Z,2.2
2018-06-20T13:36:17.778Z,2.7
2018-06-20T13:38:17.629Z,3
2018-06-20T13:40:17.995Z,2.6
2018-06-20T13:42:17.831Z,2.2
2018-06-20T13:44:17.710Z,1.8
2018-06-20T13:46:17.836Z,2.2
2018-06-20T13:48:17.687Z,2
2018-06-20T13:50:18.505Z,2.1
2018-06-20T13:52:18.342Z,2.5
2018-06-20T13:54:18.200Z,2.1
2018-06-20T13:56:18.447Z,2.4
2018-06-20T13:58:18.290Z,1.9
2018-06-20T14:00:18.141Z,1.8
2018-06-20T14:02:18.002Z,2.1
2018-06-20T14:04:17.847Z,1.2
2018-06-20T14:06:17.656Z,1.4
2018-06-20T14:08:18.498Z,1.9
2018-06-20T14:10:17.843Z,1.8
2018-06-20T14:12:17.790Z,1.7
2018-06-20T14:14:17.632Z,1.3
2018-06-20T14:16:18.280Z,1.3
2018-06-20T14:18:18.214Z,1.9
2018-06-20T14:20:18.078Z,1.4
2018-06-20T14:22:17.946Z,1.8
2018-06-20T14:24:17.799Z,1.7
2018-06-20T14:26:17.988Z,1.6
2018-06-20T14:28:17.843Z,1.7
2018-06-20T14:30:17.741Z,1.6
2018-06-20T14:32:17.596Z,1.1
2018-06-20T14:34:18.451Z,1.2
2018-06-20T14:36:17.577Z,1.3
2018-06-20T14:38:18.468Z,1.4
2018-06-20T14:40:17.812Z,1.5
2018-06-20T14:42:17.683Z,1.7
2018-06-20T14:44:18.532Z,1
2018-06-20T14:46:17.708Z,1.2
2018-06-20T14:48:18.555Z,1.5
2018-06-20T14:50:18.447Z,2.1
2018-06-20T14:52:18.295Z,1.3
2018-06-20T14:54:18.162Z,1
2018-06-20T14:56:17.773Z,2.1
2018-06-20T14:58:17.655Z,1.8
2018-06-20T15:00:18.526Z,2
2018-06-20T15:02:18.408Z,1.8
2018-06-20T15:04:18.254Z,1.4
2018-06-20T15:06:17.906Z,1.6
2018-06-20T15:08:17.821Z,1.8
2018-06-20T15:10:18.147Z,1.7
2018-06-20T15:12:18.028Z,1.6
2018-06-20T15:14:17.941Z,1
2018-06-20T15:16:17.599Z,1.6
2018-06-20T15:18:18.521Z,2.1
2018-06-20T15:20:18.428Z,1.7
2018-06-20T15:22:18.523Z,2.1
2018-06-20T15:24:18.446Z,1.6
2018-06-20T15:26:18.041Z,2
2018-06-20T15:28:17.891Z,1.4
2018-06-20T15:30:17.728Z,1.9
2018-06-20T15:32:17.587Z,1.9
2018-06-20T15:34:18.444Z,1.7
2018-06-20T15:36:18.093Z,1.4
2018-06-20T15:38:17.948Z,2
2018-06-20T15:40:18.280Z,1.7
2018-06-20T15:42:18.128Z,1.7
2018-06-20T15:44:17.996Z,2.5
2018-06-20T15:46:17.603Z,1.3
2018-06-20T15:48:18.450Z,1.9
2018-06-20T15:50:18.322Z,1.7
2018-06-20T15:52:18.187Z,1.6
2018-06-20T15:54:18.027Z,1.8
2018-06-20T15:56:18.137Z,1.5
2018-06-20T15:58:17.977Z,1.9
2018-06-20T16:00:17.858Z,2
2018-06-20T16:02:17.785Z,1.9
2018-06-20T16:04:17.621Z,1.8
2018-06-20T16:06:18.251Z,2
2018-06-20T16:08:18.075Z,2.6
2018-06-20T16:10:18.389Z,2.4
2018-06-20T16:12:18.278Z,1.9
2018-06-20T16:14:18.117Z,2.1
2018-06-20T16:16:18.261Z,2
2018-06-20T16:18:18.203Z,1.8
2018-06-20T16:20:18.059Z,2.1
2018-06-20T16:22:17.894Z,1.5
2018-06-20T16:24:17.714Z,1.7
2018-06-20T16:26:18.356Z,2.2
2018-06-20T16:28:18.202Z,1.9
2018-06-20T16:30:18.070Z,1.6
2018-06-20T16:32:17.741Z,1.4
2018-06-20T16:34:17.586Z,1.5
2018-06-20T16:36:18.170Z,1.9
2018-06-20T16:38:18.023Z,1.6
2018-06-20T16:40:18.390Z,1.4
2018-06-20T16:42:18.240Z,1.9
2018-06-20T16:44:18.086Z,1.9
2018-06-20T16:46:18.285Z,1.4
2018-06-20T16:48:18.129Z,2.2
2018-06-20T16:50:17.971Z,2.1
2018-06-20T16:52:17.819Z,1.6
2018-06-20T16:54:17.654Z,2
2018-06-20T16:56:18.283Z,1.4
2018-06-20T16:58:18.170Z,1.6
2018-06-20T17:00:18.023Z,1.5
2018-06-20T17:02:17.903Z,2.2
2018-06-20T17:04:17.746Z,1.5
2018-06-20T17:06:18.066Z,1.9
2018-06-20T17:08:17.985Z,1.3
2018-06-20T17:10:18.331Z,2
2018-06-20T17:12:18.159Z,1.5
2018-06-20T17:14:17.986Z,2.1
2018-06-20T17:16:18.576Z,1.6
2018-06-20T17:18:18.519Z,1.9
2018-06-20T17:20:18.371Z,1.7
2018-06-20T17:22:18.214Z,2.2
2018-06-20T17:24:18.057Z,2.2
2018-06-20T17:26:17.656Z,2
2018-06-20T17:28:18.498Z,1.5
2018-06-20T17:30:18.319Z,1.4
2018-06-20T17:32:18.181Z,1.8
2018-06-20T17:34:18.090Z,2.7
2018-06-20T17:36:17.717Z,2.1
2018-06-20T17:38:18.551Z,2.2
2018-06-20T17:40:17.878Z,2.6
2018-06-20T17:42:17.706Z,2.4
2018-06-20T17:44:18.549Z,1.6
2018-06-20T17:46:18.150Z,2.4
2018-06-20T17:48:18.031Z,2.4
2018-06-20T17:50:17.863Z,2.3
2018-06-20T17:52:17.708Z,2.4
2018-06-20T17:54:18.543Z,1.9
2018-06-20T17:56:17.655Z,2.8
2018-06-20T17:58:18.491Z,2.3
2018-06-20T18:00:18.371Z,2.4
2018-06-20T18:02:18.222Z,2.3
2018-06-20T18:04:18.045Z,2.7
2018-06-20T18:06:17.635Z,2.3
2018-06-20T18:08:18.476Z,2.5
2018-06-20T18:10:17.794Z,2.3
2018-06-20T18:12:18.365Z,2.4
2018-06-20T18:14:18.262Z,2
2018-06-20T18:16:17.879Z,2.1
2018-06-20T18:18:17.804Z,1.8
2018-06-20T18:20:17.644Z,3
2018-06-20T18:22:18.485Z,2.3
2018-06-20T18:24:18.334Z,1.9
2018-06-20T18:26:18.006Z,2.2
2018-06-20T18:28:17.864Z,2.2
2018-06-20T18:30:17.718Z,2.3
2018-06-20T18:32:18.553Z,2.1
2018-06-20T18:34:18.380Z,2
2018-06-20T18:36:17.962Z,2.2
2018-06-20T18:38:17.814Z,2
2018-06-20T18:40:18.088Z,1.6
2018-06-20T18:42:17.914Z,2.1
2018-06-20T18:44:17.770Z,2.7
2018-06-20T18:46:18.399Z,2.9
2018-06-20T18:48:18.216Z,2.5
2018-06-20T18:50:18.052Z,2.6
2018-06-20T18:52:17.916Z,2.4
2018-06-20T18:54:17.765Z,2.5
2018-06-20T18:56:18.036Z,2.9
2018-06-20T18:58:17.870Z,2.8
2018-06-20T19:00:17.710Z,2.4
2018-06-20T19:02:18.544Z,2.4
2018-06-20T19:04:18.369Z,2.3
2018-06-20T19:06:17.983Z,2.1
2018-06-20T19:08:17.798Z,2
2018-06-20T19:10:18.111Z,1.8
2018-06-20T19:12:17.963Z,2.2
2018-06-20T19:14:17.795Z,2
2018-06-20T19:16:18.007Z,2.9
2018-06-20T19:18:17.884Z,2.1
2018-06-20T19:20:17.726Z,2.7
2018-06-20T19:22:18.546Z,2.7
2018-06-20T19:24:18.363Z,2
2018-06-20T19:26:18.005Z,2.1
2018-06-20T19:28:17.844Z,2.3
2018-06-20T19:30:17.663Z,2.3
2018-06-20T19:32:18.583Z,2.7
2018-06-20T19:34:17.554Z,3.1
2018-06-20T19:36:18.145Z,3.2
2018-06-20T19:38:17.953Z,3.1
2018-06-20T19:40:18.256Z,2.5
2018-06-20T19:42:18.108Z,2.6
2018-06-20T19:44:17.941Z,2.6
2018-06-20T19:46:18.378Z,4.2
2018-06-20T19:48:18.244Z,3.1
2018-06-20T19:50:18.108Z,3.2
2018-06-20T19:52:17.943Z,1.8
2018-06-20T19:54:17.756Z,2.4
2018-06-20T19:56:17.895Z,3
2018-06-20T19:58:17.722Z,2.7
2018-06-20T20:00:17.584Z,4
2018-06-20T20:02:18.429Z,3.1
2018-06-20T20:04:18.258Z,4.3
2018-06-20T20:06:17.889Z,4.4
2018-06-20T20:08:17.718Z,3.7
2018-06-20T20:10:18.168Z,2.5
2018-06-20T20:12:18.005Z,3.3
2018-06-20T20:14:17.815Z,3.3
2018-06-20T20:16:18.490Z,2.3
2018-06-20T20:18:18.453Z,2.5
2018-06-20T20:20:18.362Z,2.7
2018-06-20T20:22:18.412Z,2.6
2018-06-20T20:24:18.262Z,2.1
2018-06-20T20:26:17.824Z,2.2
2018-06-20T20:28:17.628Z,2.8
2018-06-20T20:30:18.468Z,2.7
2018-06-20T20:32:18.288Z,2.5
2018-06-20T20:34:18.097Z,3
2018-06-20T20:36:17.703Z,3.6
2018-06-20T20:38:18.520Z,3.3
2018-06-20T20:40:18.024Z,2.7
2018-06-20T20:42:17.826Z,3.2
2018-06-20T20:44:17.660Z,2.1
2018-06-20T20:46:18.385Z,3
2018-06-20T20:48:18.194Z,3.2
2018-06-20T20:50:18.017Z,3.2
2018-06-20T20:52:17.849Z,2.9
2018-06-20T20:54:17.684Z,3.5
2018-06-20T20:56:18.443Z,3
2018-06-20T20:58:18.265Z,2.8
2018-06-20T21:00:18.145Z,3
2018-06-20T21:02:17.978Z,2.5
2018-06-20T21:04:17.823Z,2.8
2018-06-20T21:06:18.466Z,3.3
2018-06-20T21:08:18.361Z,3.4
2018-06-20T21:10:17.668Z,2.6
2018-06-20T21:12:18.496Z,2.6
2018-06-20T21:14:18.335Z,2.9
2018-06-20T21:16:18.486Z,2.5
2018-06-20T21:18:18.380Z,2.8
2018-06-20T21:20:18.191Z,3.1
2018-06-20T21:22:18.000Z,3.4
2018-06-20T21:24:17.828Z,3.3
2018-06-20T21:26:18.442Z,2.8
2018-06-20T21:28:18.279Z,3.3
2018-06-20T21:30:18.148Z,3.1
2018-06-20T21:32:17.974Z,3
2018-06-20T21:34:17.800Z,3.3
2018-06-20T21:36:18.412Z,2.8
2018-06-20T21:38:18.215Z,2.4
2018-06-20T21:40:18.538Z,2.9
2018-06-20T21:42:18.339Z,2.6
2018-06-20T21:44:18.155Z,3.1
2018-06-20T21:46:18.308Z,3
2018-06-20T21:48:18.121Z,2.4
2018-06-20T21:50:17.957Z,2.8
2018-06-20T21:52:17.797Z,3.7
2018-06-20T21:54:17.620Z,2.6
2018-06-20T21:56:18.184Z,2.7
2018-06-20T21:58:18.018Z,3
2018-06-20T22:00:17.836Z,2.7
2018-06-20T22:02:17.667Z,3.5
2018-06-20T22:04:18.496Z,3.9
2018-06-20T22:06:17.792Z,2.7
2018-06-20T22:08:17.597Z,3.4
2018-06-20T22:10:18.043Z,3.1
2018-06-20T22:12:17.838Z,3.3
2018-06-20T22:14:17.638Z,2.6
2018-06-20T22:16:18.020Z,3
2018-06-20T22:18:17.934Z,2.7
2018-06-20T22:20:17.772Z,3.4
2018-06-20T22:22:17.606Z,2.9
2018-06-20T22:24:18.421Z,3.7
2018-06-20T22:26:18.517Z,2.8
2018-06-20T22:28:18.322Z,2.2
2018-06-20T22:30:18.158Z,3.3
2018-06-20T22:32:17.968Z,3
2018-06-20T22:34:17.825Z,3.3
2018-06-20T22:36:18.407Z,3.7
2018-06-20T22:38:18.241Z,3
2018-06-20T22:40:18.515Z,3.3
2018-06-20T22:42:18.323Z,3.4
2018-06-20T22:44:18.164Z,3.7
2018-06-20T22:46:17.771Z,3.7
2018-06-20T22:48:17.584Z,3.3
2018-06-20T22:50:18.401Z,2.9
2018-06-20T22:52:18.230Z,3.3
2018-06-20T22:54:18.024Z,3.3
2018-06-20T22:56:17.573Z,2.8
2018-06-20T22:58:18.388Z,3.1
2018-06-20T23:00:18.195Z,3.7
2018-06-20T23:02:18.001Z,3.6
2018-06-20T23:04:17.814Z,3.7
2018-06-20T23:06:18.072Z,3.6
2018-06-20T23:08:17.878Z,3.5
2018-06-20T23:10:18.143Z,2.8
2018-06-20T23:12:17.951Z,3.1
2018-06-20T23:14:17.769Z,3.7
2018-06-20T23:16:18.399Z,3
2018-06-20T23:18:18.288Z,3.2
2018-06-20T23:20:18.134Z,3.6
2018-06-20T23:22:17.763Z,3.8
2018-06-20T23:24:17.554Z,4.4
2018-06-20T23:26:18.150Z,3.7
2018-06-20T23:28:17.974Z,3.1
2018-06-20T23:30:17.793Z,3.6
2018-06-20T23:32:17.607Z,3.2
2018-06-20T23:34:18.423Z,4.1
2018-06-20T23:36:18.027Z,3.8
2018-06-20T23:38:17.851Z,3.7
2018-06-20T23:40:18.290Z,3.7
2018-06-20T23:42:18.091Z,4.5
2018-06-20T23:44:17.902Z,3.8
2018-06-20T23:46:18.463Z,3.6
2018-06-20T23:48:18.278Z,4
2018-06-20T23:50:18.142Z,3.5
2018-06-20T23:52:17.964Z,3.2
2018-06-20T23:54:17.758Z,3.2
2018-06-20T23:56:18.338Z,4
2018-06-20T23:58:18.143Z,3.5
